createdAt,value
2023-01-07T00:01:41.518Z,3.45
2023-01-07T00:04:13.738Z,3.43
2023-01-07T00:06:43.754Z,3.41
2023-01-07T00:09:15.852Z,3.39
2023-01-07T00:11:44.245Z,3.38
2023-01-07T00:14:14.072Z,3.38
2023-01-07T00:16:42.822Z,3.37
2023-01-07T00:19:14.630Z,3.36
2023-01-07T00:21:42.913Z,3.33
2023-01-07T00:24:12.042Z,3.33
2023-01-07T00:26:40.893Z,3.34
2023-01-07T00:29:09.103Z,3.35
2023-01-07T00:31:39.810Z,3.37
2023-01-07T00:34:08.846Z,3.42
2023-01-07T00:36:43.285Z,3.48
2023-01-07T00:39:19.376Z,3.54
2023-01-07T00:42:06.913Z,3.61
2023-01-07T00:44:37.186Z,3.66
2023-01-07T00:47:04.886Z,3.70
2023-01-07T00:49:32.689Z,3.71
2023-01-07T00:52:00.332Z,3.63
2023-01-07T00:54:28.182Z,3.56
2023-01-07T00:56:55.923Z,3.57
2023-01-07T00:59:23.582Z,3.61
2023-01-07T01:01:51.984Z,3.64
2023-01-07T01:04:19.558Z,3.64
2023-01-07T01:06:47.253Z,3.65
2023-01-07T01:09:14.965Z,3.64
2023-01-07T01:11:42.491Z,3.62
2023-01-07T01:14:11.356Z,3.63
2023-01-07T01:16:39.202Z,3.67
2023-01-07T01:19:07.327Z,3.68
2023-01-07T01:21:34.832Z,3.69
2023-01-07T01:24:02.307Z,3.71
2023-01-07T01:26:30.444Z,3.71
2023-01-07T01:28:58.114Z,3.70
2023-01-07T01:31:26.732Z,3.70
2023-01-07T01:33:56.348Z,3.68
2023-01-07T01:36:24.449Z,3.66
2023-01-07T01:38:52.931Z,3.67
2023-01-07T01:41:21.333Z,3.66
2023-01-07T01:43:51.413Z,3.66
2023-01-07T01:46:27.095Z,3.66
2023-01-07T01:49:02.762Z,3.66
2023-01-07T01:51:35.626Z,3.66
2023-01-07T01:54:07.610Z,3.66
2023-01-07T01:56:39.497Z,3.65
2023-01-07T01:59:12.980Z,3.66
2023-01-07T02:01:41.306Z,3.67
2023-01-07T02:04:16.300Z,3.65
2023-01-07T02:06:51.955Z,3.66
2023-01-07T02:09:27.991Z,3.65
2023-01-07T02:12:34.551Z,3.64
2023-01-07T02:15:40.455Z,3.63
2023-01-07T02:19:02.681Z,3.63
2023-01-07T02:22:07.276Z,3.61
2023-01-07T02:25:11.692Z,3.59
2023-01-07T02:27:59.487Z,3.58
2023-01-07T02:30:47.089Z,3.62
2023-01-07T02:33:39.704Z,3.66
2023-01-07T02:36:23.856Z,3.71
2023-01-07T02:39:09.278Z,3.76
2023-01-07T02:41:54.107Z,3.81
2023-01-07T02:44:42.992Z,3.88
2023-01-07T02:47:45.174Z,3.93
2023-01-07T02:50:13.545Z,3.94
2023-01-07T02:52:41.203Z,4.05
2023-01-07T02:55:14.455Z,4.15
2023-01-07T02:58:05.386Z,4.22
2023-01-07T03:00:50.937Z,4.22
2023-01-07T03:04:04.694Z,4.18
2023-01-07T03:07:12.860Z,4.15
2023-01-07T03:10:07.282Z,4.08
2023-01-07T03:12:41.199Z,4.07
2023-01-07T03:15:20.138Z,4.04
2023-01-07T03:18:08.349Z,3.98
2023-01-07T03:20:38.955Z,3.93
2023-01-07T03:23:10.320Z,3.88
2023-01-07T03:25:45.118Z,3.82
2023-01-07T03:28:16.947Z,3.80
2023-01-07T03:30:47.679Z,3.77
2023-01-07T03:33:29.586Z,3.71
2023-01-07T03:36:00.141Z,3.69
2023-01-07T03:38:29.664Z,3.70
2023-01-07T03:40:59.264Z,3.70
2023-01-07T03:43:26.948Z,3.71
2023-01-07T03:45:57.765Z,3.71
2023-01-07T03:48:26.048Z,3.70
2023-01-07T03:50:53.766Z,3.70
2023-01-07T03:53:21.368Z,3.70
2023-01-07T03:55:52.489Z,3.68
2023-01-07T03:58:20.100Z,3.68
2023-01-07T04:00:47.723Z,3.70
2023-01-07T04:03:17.071Z,3.70
2023-01-07T04:05:46.525Z,3.71
2023-01-07T04:08:14.147Z,3.71
2023-01-07T04:10:43.322Z,3.72
2023-01-07T04:13:12.022Z,3.69
2023-01-07T04:15:42.113Z,3.69
2023-01-07T04:18:13.335Z,3.70
2023-01-07T04:20:55.940Z,3.68
2023-01-07T04:23:38.003Z,3.71
2023-01-07T04:26:07.960Z,3.77
2023-01-07T04:28:41.326Z,3.82
2023-01-07T04:31:16.651Z,3.87
2023-01-07T04:33:55.301Z,3.94
2023-01-07T04:36:35.522Z,4.01
2023-01-07T04:39:11.365Z,4.08
2023-01-07T04:41:50.355Z,4.16
2023-01-07T04:44:21.912Z,4.24
2023-01-07T04:47:02.069Z,4.34
2023-01-07T04:49:41.330Z,4.40
2023-01-07T04:52:18.096Z,4.47
2023-01-07T04:54:53.297Z,4.47
2023-01-07T04:57:31.306Z,4.43
2023-01-07T05:00:06.692Z,4.41
2023-01-07T05:02:41.745Z,4.36
2023-01-07T05:05:10.931Z,4.29
2023-01-07T05:07:39.376Z,4.25
2023-01-07T05:10:08.018Z,4.22
2023-01-07T05:12:37.250Z,4.18
2023-01-07T05:15:07.048Z,4.16
2023-01-07T05:17:35.158Z,4.13
2023-01-07T05:20:06.073Z,4.12
2023-01-07T05:22:34.911Z,4.09
2023-01-07T05:25:03.811Z,4.07
2023-01-07T05:27:32.246Z,4.04
2023-01-07T05:30:00.280Z,4.04
2023-01-07T05:32:28.040Z,4.04
2023-01-07T05:34:57.224Z,4.04
2023-01-07T05:37:25.660Z,4.06
2023-01-07T05:39:53.640Z,4.07
2023-01-07T05:42:21.432Z,4.08
2023-01-07T05:44:50.167Z,4.08
2023-01-07T05:47:17.934Z,4.09
2023-01-07T05:49:45.359Z,4.10
2023-01-07T05:52:13.073Z,4.08
2023-01-07T05:54:41.076Z,4.06
2023-01-07T05:57:08.765Z,4.03
2023-01-07T05:59:36.591Z,4.06
2023-01-07T06:02:04.403Z,4.05
2023-01-07T06:04:33.652Z,4.04
2023-01-07T06:07:01.347Z,4.04
2023-01-07T06:09:30.766Z,4.04
2023-01-07T06:11:58.566Z,4.06
2023-01-07T06:14:26.276Z,4.09
2023-01-07T06:16:53.891Z,4.09
2023-01-07T06:19:22.458Z,4.12
2023-01-07T06:21:50.147Z,4.14
2023-01-07T06:24:17.900Z,4.19
2023-01-07T06:26:45.440Z,4.22
2023-01-07T06:29:13.385Z,4.27
2023-01-07T06:31:41.285Z,4.31
2023-01-07T06:34:08.820Z,4.38
2023-01-07T06:36:36.638Z,4.47
2023-01-07T06:39:04.697Z,4.51
2023-01-07T06:41:32.503Z,4.58
2023-01-07T06:44:00.156Z,4.60
2023-01-07T06:46:28.089Z,4.62
2023-01-07T06:48:55.907Z,4.61
2023-01-07T06:51:23.547Z,4.61
2023-01-07T06:53:51.162Z,4.60
2023-01-07T06:56:18.945Z,4.58
2023-01-07T06:58:46.404Z,4.55
2023-01-07T07:01:14.233Z,4.50
2023-01-07T07:03:41.966Z,4.45
2023-01-07T07:06:09.470Z,4.44
2023-01-07T07:08:37.347Z,4.44
2023-01-07T07:11:05.097Z,4.44
2023-01-07T07:13:32.574Z,4.43
2023-01-07T07:16:00.384Z,4.44
2023-01-07T07:18:28.041Z,4.42
2023-01-07T07:20:57.911Z,4.43
2023-01-07T07:23:25.925Z,4.44
2023-01-07T07:25:53.450Z,4.44
2023-01-07T07:28:21.018Z,4.43
2023-01-07T07:30:48.590Z,4.45
2023-01-07T07:33:18.100Z,4.45
2023-01-07T07:35:47.057Z,4.47
2023-01-07T07:38:17.137Z,4.49
2023-01-07T07:40:45.762Z,4.51
2023-01-07T07:43:14.927Z,4.52
2023-01-07T07:45:43.242Z,4.55
2023-01-07T07:48:14.216Z,4.54
2023-01-07T07:50:42.709Z,4.55
2023-01-07T07:53:10.979Z,4.54
2023-01-07T07:55:39.451Z,4.54
2023-01-07T07:58:07.239Z,4.56
2023-01-07T08:00:35.269Z,4.58
2023-01-07T08:03:05.497Z,4.62
2023-01-07T08:05:33.024Z,4.67
2023-01-07T08:08:00.774Z,4.71
2023-01-07T08:10:29.406Z,4.77
2023-01-07T08:12:57.306Z,4.83
2023-01-07T08:15:25.114Z,4.93
2023-01-07T08:18:01.492Z,5.01
2023-01-07T08:20:29.172Z,5.09
2023-01-07T08:23:01.819Z,5.18
2023-01-07T08:25:33.245Z,5.22
2023-01-07T08:28:01.703Z,5.26
2023-01-07T08:30:30.177Z,5.29
2023-01-07T08:32:58.524Z,5.30
2023-01-07T08:35:26.545Z,5.31
2023-01-07T08:38:07.880Z,5.31
2023-01-07T08:40:36.903Z,5.29
2023-01-07T08:43:07.462Z,5.29
2023-01-07T08:45:35.343Z,5.27
2023-01-07T08:48:03.530Z,5.26
2023-01-07T08:50:33.349Z,5.25
2023-01-07T08:53:01.452Z,5.23
2023-01-07T08:55:28.971Z,5.21
2023-01-07T08:57:57.152Z,5.21
2023-01-07T09:00:25.631Z,5.18
2023-01-07T09:02:53.235Z,5.15
2023-01-07T09:05:21.671Z,5.15
2023-01-07T09:07:53.994Z,5.12
2023-01-07T09:10:22.136Z,5.10
2023-01-07T09:12:49.989Z,5.10
2023-01-07T09:15:20.510Z,5.09
2023-01-07T09:17:47.960Z,5.09
2023-01-07T09:20:16.365Z,5.09
2023-01-07T09:22:44.102Z,5.08
2023-01-07T09:25:11.853Z,5.10
2023-01-07T09:27:40.859Z,5.12
2023-01-07T09:30:09.606Z,5.11
2023-01-07T09:32:37.427Z,5.13
2023-01-07T09:35:06.859Z,5.12
2023-01-07T09:37:34.529Z,5.13
2023-01-07T09:40:05.214Z,5.17
2023-01-07T09:45:43.313Z,5.30
2023-01-07T09:48:25.529Z,5.38
2023-01-07T09:51:01.153Z,5.45
2023-01-07T09:53:54.484Z,5.56
2023-01-07T09:56:29.398Z,5.66
2023-01-07T09:59:00.235Z,5.74
2023-01-07T10:01:57.133Z,5.79
2023-01-07T10:04:42.287Z,5.82
2023-01-07T10:07:35.507Z,5.91
2023-01-07T10:10:30.037Z,5.99
2023-01-07T10:13:22.968Z,6.02
2023-01-07T10:16:23.648Z,6.04
2023-01-07T10:19:04.584Z,6.03
2023-01-07T10:21:43.302Z,6.01
2023-01-07T10:24:22.363Z,6.00
2023-01-07T10:26:55.040Z,5.98
2023-01-07T10:29:31.348Z,5.92
2023-01-07T10:32:07.514Z,5.90
2023-01-07T10:34:40.605Z,5.88
2023-01-07T10:37:16.415Z,5.86
2023-01-07T10:40:13.704Z,5.86
2023-01-07T10:43:12.539Z,5.87
2023-01-07T10:45:51.634Z,5.85
2023-01-07T10:48:33.567Z,5.86
2023-01-07T10:51:15.006Z,5.91
2023-01-07T10:54:22.827Z,5.93
2023-01-07T10:56:56.715Z,5.98
2023-01-07T10:59:25.542Z,6.00
2023-01-07T11:01:57.068Z,6.02
2023-01-07T11:04:26.093Z,6.03
2023-01-07T11:07:29.420Z,6.03
2023-01-07T11:10:01.908Z,6.01
2023-01-07T11:12:46.584Z,6.01
2023-01-07T11:15:36.500Z,6.05
2023-01-07T11:18:15.061Z,6.06
2023-01-07T11:20:53.407Z,6.08
2023-01-07T11:23:42.753Z,6.11
2023-01-07T11:26:30.043Z,6.14
2023-01-07T11:29:17.560Z,6.14
2023-01-07T11:31:55.676Z,6.20
2023-01-07T11:34:34.246Z,6.28
2023-01-07T11:37:03.599Z,6.38
2023-01-07T11:39:36.820Z,6.43
2023-01-07T11:42:36.582Z,6.53
2023-01-07T11:45:23.792Z,6.64
2023-01-07T11:48:29.690Z,6.72
2023-01-07T11:51:04.584Z,6.79
2023-01-07T11:53:44.755Z,6.82
2023-01-07T11:56:22.914Z,6.84
2023-01-07T11:59:17.492Z,6.87
2023-01-07T12:01:53.353Z,6.87
2023-01-07T12:04:30.926Z,6.86
2023-01-07T12:07:06.293Z,6.82
2023-01-07T12:09:38.158Z,6.80
2023-01-07T12:12:33.476Z,6.78
2023-01-07T12:15:18.529Z,6.76
2023-01-07T12:17:50.756Z,6.72
2023-01-07T12:20:50.271Z,6.71
2023-01-07T12:23:37.929Z,6.69
2023-01-07T12:26:16.061Z,6.66
2023-01-07T12:29:11.803Z,6.65
2023-01-07T12:31:56.602Z,6.62
2023-01-07T12:34:55.553Z,6.59
2023-01-07T12:37:38.115Z,6.57
2023-01-07T12:40:20.446Z,6.55
2023-01-07T12:43:05.346Z,6.53
2023-01-07T12:45:56.850Z,6.51
2023-01-07T12:48:44.751Z,6.49
2023-01-07T12:51:29.876Z,6.48
2023-01-07T12:54:17.635Z,6.43
2023-01-07T12:56:53.690Z,6.41
2023-01-07T12:59:46.719Z,6.40
2023-01-07T13:02:37.526Z,6.40
2023-01-07T13:05:21.880Z,6.37
2023-01-07T13:08:03.386Z,6.36
2023-01-07T13:10:41.863Z,6.35
2023-01-07T13:13:24.411Z,6.35
2023-01-07T13:15:53.316Z,6.34
2023-01-07T13:18:21.225Z,6.33
2023-01-07T13:21:08.284Z,6.36
2023-01-07T13:24:09.282Z,6.40
2023-01-07T13:26:57.319Z,6.44
2023-01-07T13:30:02.261Z,6.54
2023-01-07T13:32:47.457Z,6.61
2023-01-07T13:35:43.323Z,6.65
2023-01-07T13:38:51.789Z,6.72
2023-01-07T13:41:51.262Z,6.71
2023-01-07T13:45:03.822Z,6.73
2023-01-07T13:47:53.387Z,6.72
2023-01-07T13:50:29.702Z,6.72
2023-01-07T13:53:07.368Z,6.70
2023-01-07T13:55:40.020Z,6.70
2023-01-07T13:58:37.084Z,6.64
2023-01-07T14:01:12.007Z,6.66
2023-01-07T14:03:49.610Z,6.62
2023-01-07T14:06:29.413Z,6.60
2023-01-07T14:09:10.717Z,6.57
2023-01-07T14:12:03.755Z,6.52
2023-01-07T14:14:57.863Z,6.50
2023-01-07T14:17:44.541Z,6.45
2023-01-07T14:20:46.728Z,6.42
2023-01-07T14:23:25.731Z,6.39
2023-01-07T14:26:31.116Z,6.34
2023-01-07T14:29:19.400Z,6.31
2023-01-07T14:31:47.159Z,6.29
2023-01-07T14:34:24.269Z,6.26
2023-01-07T14:37:14.672Z,6.24
2023-01-07T14:39:45.107Z,6.22
2023-01-07T14:42:26.203Z,6.18
2023-01-07T14:44:53.827Z,6.16
2023-01-07T14:47:51.984Z,6.08
2023-01-07T14:50:37.321Z,5.97
2023-01-07T14:53:22.081Z,5.90
2023-01-07T14:56:12.538Z,5.91
2023-01-07T14:59:02.133Z,5.89
2023-01-07T15:02:10.594Z,5.92
2023-01-07T15:05:11.029Z,5.98
2023-01-07T15:07:40.684Z,6.04
2023-01-07T15:10:49.157Z,6.13
2023-01-07T15:13:37.659Z,6.21
2023-01-07T15:16:09.903Z,6.28
2023-01-07T15:18:50.959Z,6.31
2023-01-07T15:22:02.342Z,6.34
2023-01-07T15:24:56.499Z,6.35
2023-01-07T15:27:50.862Z,6.34
2023-01-07T15:31:02.528Z,6.31
2023-01-07T15:34:01.873Z,6.30
2023-01-07T15:36:31.461Z,6.28
2023-01-07T15:39:02.745Z,6.24
2023-01-07T15:41:35.894Z,6.22
2023-01-07T15:44:17.956Z,6.18
2023-01-07T15:46:45.536Z,6.15
2023-01-07T15:49:23.279Z,6.13
2023-01-07T15:51:57.435Z,6.06
2023-01-07T15:54:38.915Z,6.01
2023-01-07T15:57:31.372Z,5.94
2023-01-07T15:59:59.019Z,5.87
2023-01-07T16:02:37.456Z,5.85
2023-01-07T16:05:06.528Z,5.85
2023-01-07T16:07:52.478Z,5.84
2023-01-07T16:10:32.634Z,5.82
2023-01-07T16:13:04.484Z,5.83
2023-01-07T16:15:36.496Z,5.80
2023-01-07T16:18:16.057Z,5.78
2023-01-07T16:20:58.305Z,5.79
2023-01-07T16:23:33.690Z,5.80
2023-01-07T16:26:06.091Z,5.82
2023-01-07T16:28:54.096Z,5.88
2023-01-07T16:31:25.813Z,5.92
2023-01-07T16:33:57.282Z,5.98
2023-01-07T16:36:36.056Z,6.04
2023-01-07T16:39:08.960Z,6.10
2023-01-07T16:41:37.040Z,6.16
2023-01-07T16:44:04.910Z,6.23
2023-01-07T16:46:37.890Z,6.32
2023-01-07T16:49:28.422Z,6.37
2023-01-07T16:52:15.058Z,6.38
2023-01-07T16:54:44.034Z,6.39
2023-01-07T16:57:17.201Z,6.36
2023-01-07T16:59:54.946Z,6.33
2023-01-07T17:02:58.915Z,6.31
2023-01-07T17:05:32.890Z,6.29
2023-01-07T17:08:05.026Z,6.27
2023-01-07T17:10:36.251Z,6.23
2023-01-07T17:13:17.170Z,6.19
2023-01-07T17:15:44.458Z,6.16
2023-01-07T17:18:20.029Z,6.13
2023-01-07T17:20:51.787Z,6.08
2023-01-07T17:23:31.934Z,6.05
2023-01-07T17:26:12.806Z,6.01
2023-01-07T17:28:48.406Z,5.97
2023-01-07T17:31:16.430Z,5.92
2023-01-07T17:33:44.468Z,5.90
2023-01-07T17:36:21.899Z,5.88
2023-01-07T17:38:49.770Z,5.87
2023-01-07T17:41:41.798Z,5.85
2023-01-07T17:44:12.408Z,5.82
2023-01-07T17:46:41.303Z,5.81
2023-01-07T17:49:11.524Z,5.81
2023-01-07T17:51:42.403Z,5.83
2023-01-07T17:54:20.065Z,5.86
2023-01-07T17:56:48.106Z,5.91
2023-01-07T17:59:18.875Z,5.94
2023-01-07T18:01:46.966Z,6.01
2023-01-07T18:04:14.687Z,6.06
2023-01-07T18:06:43.142Z,6.13
2023-01-07T18:09:12.928Z,6.19
2023-01-07T18:12:02.483Z,6.21
2023-01-07T18:14:31.935Z,6.27
2023-01-07T18:16:59.760Z,6.30
2023-01-07T18:19:27.492Z,6.32
2023-01-07T18:21:55.002Z,6.31
2023-01-07T18:24:22.602Z,6.30
2023-01-07T18:26:50.303Z,6.27
2023-01-07T18:29:17.839Z,6.25
2023-01-07T18:31:45.668Z,6.25
2023-01-07T18:34:15.023Z,6.21
2023-01-07T18:36:42.589Z,6.18
2023-01-07T18:39:17.536Z,6.14
2023-01-07T18:41:45.135Z,6.10
2023-01-07T18:44:12.578Z,6.06
2023-01-07T18:46:40.373Z,6.05
2023-01-07T18:49:09.399Z,6.01
2023-01-07T18:51:37.757Z,6.00
2023-01-07T18:54:05.889Z,5.94
2023-01-07T18:56:33.433Z,5.91
2023-01-07T18:59:00.899Z,5.89
2023-01-07T19:01:31.672Z,5.86
2023-01-07T19:03:59.631Z,5.85
2023-01-07T19:06:27.455Z,5.80
2023-01-07T19:08:55.965Z,5.77
2023-01-07T19:11:23.647Z,5.74
2023-01-07T19:13:51.085Z,5.75
2023-01-07T19:16:19.196Z,5.77
2023-01-07T19:18:46.994Z,5.80
2023-01-07T19:21:14.740Z,5.84
2023-01-07T19:23:42.432Z,5.89
2023-01-07T19:26:11.489Z,5.93
2023-01-07T19:28:39.080Z,5.97
2023-01-07T19:31:09.150Z,6.02
2023-01-07T19:33:37.521Z,6.06
2023-01-07T19:36:13.301Z,6.10
2023-01-07T19:38:44.088Z,6.13
2023-01-07T19:41:18.769Z,6.15
2023-01-07T19:43:47.759Z,6.17
2023-01-07T19:46:16.000Z,6.16
2023-01-07T19:48:48.910Z,6.13
2023-01-07T19:51:16.757Z,6.12
2023-01-07T19:53:46.693Z,6.07
2023-01-07T19:56:14.233Z,6.05
2023-01-07T19:58:42.162Z,6.00
2023-01-07T20:01:17.261Z,5.94
2023-01-07T20:03:45.343Z,5.90
2023-01-07T20:06:16.211Z,5.86
2023-01-07T20:08:44.755Z,5.85
2023-01-07T20:11:13.560Z,5.81
2023-01-07T20:13:43.042Z,5.77
2023-01-07T20:16:15.035Z,5.72
2023-01-07T20:18:46.127Z,5.69
2023-01-07T20:21:16.526Z,5.63
2023-01-07T20:23:44.599Z,5.61
2023-01-07T20:26:16.559Z,5.57
2023-01-07T20:28:44.894Z,5.53
2023-01-07T20:31:15.226Z,5.48
2023-01-07T20:33:44.889Z,5.44
2023-01-07T20:36:18.837Z,5.41
2023-01-07T20:38:47.382Z,5.41
2023-01-07T20:41:19.715Z,5.40
2023-01-07T20:43:57.980Z,5.43
2023-01-07T20:46:27.778Z,5.46
2023-01-07T20:48:56.711Z,5.52
2023-01-07T20:51:24.479Z,5.53
2023-01-07T20:53:52.514Z,5.57
2023-01-07T20:56:22.759Z,5.62
2023-01-07T20:58:51.176Z,5.65
2023-01-07T21:01:21.240Z,5.70
2023-01-07T21:03:49.588Z,5.73
2023-01-07T21:06:19.143Z,5.74
2023-01-07T21:08:48.103Z,5.77
2023-01-07T21:11:20.221Z,5.78
2023-01-07T21:13:49.245Z,5.78
2023-01-07T21:16:17.629Z,5.78
2023-01-07T21:18:45.232Z,5.75
2023-01-07T21:21:23.464Z,5.74
2023-01-07T21:23:52.981Z,5.73
2023-01-07T21:26:23.336Z,5.70
2023-01-07T21:28:55.296Z,5.68
2023-01-07T21:31:24.165Z,5.67
2023-01-07T21:33:55.757Z,5.65
2023-01-07T21:36:25.126Z,5.61
2023-01-07T21:38:56.881Z,5.58
2023-01-07T21:41:26.000Z,5.56
2023-01-07T21:43:54.130Z,5.53
2023-01-07T21:46:22.083Z,5.51
2023-01-07T21:48:51.243Z,5.48
2023-01-07T21:51:25.564Z,5.42
2023-01-07T21:53:55.931Z,5.38
2023-01-07T21:56:28.129Z,5.34
2023-01-07T21:58:55.446Z,5.32
2023-01-07T22:01:25.023Z,5.29
2023-01-07T22:03:53.057Z,5.29
2023-01-07T22:06:27.593Z,5.30
2023-01-07T22:08:58.600Z,5.33
2023-01-07T22:11:26.740Z,5.35
2023-01-07T22:13:57.556Z,5.39
2023-01-07T22:16:28.453Z,5.43
2023-01-07T22:18:56.962Z,5.48
2023-01-07T22:21:24.802Z,5.52
2023-01-07T22:23:52.223Z,5.56
2023-01-07T22:26:20.757Z,5.66
2023-01-07T22:28:57.932Z,5.74
2023-01-07T22:31:32.375Z,5.78
2023-01-07T22:34:00.188Z,5.80
2023-01-07T22:36:33.258Z,5.80
2023-01-07T22:39:09.758Z,5.80
2023-01-07T22:41:37.881Z,5.83
2023-01-07T22:44:10.320Z,5.82
2023-01-07T22:46:39.517Z,5.81
2023-01-07T22:49:07.151Z,5.78
2023-01-07T22:51:39.540Z,5.75
2023-01-07T22:54:08.293Z,5.73
2023-01-07T22:56:36.117Z,5.70
2023-01-07T22:59:03.825Z,5.70
2023-01-07T23:01:31.548Z,5.66
2023-01-07T23:03:59.418Z,5.63
2023-01-07T23:06:27.324Z,5.62
2023-01-07T23:08:54.929Z,5.62
2023-01-07T23:11:41.030Z,5.54
2023-01-07T23:14:08.927Z,5.53
2023-01-07T23:16:37.327Z,5.50
2023-01-07T23:19:05.467Z,5.48
2023-01-07T23:21:33.865Z,5.45
2023-01-07T23:24:01.425Z,5.43
2023-01-07T23:26:28.899Z,5.39
2023-01-07T23:28:56.807Z,5.36
2023-01-07T23:31:24.689Z,5.33
2023-01-07T23:33:52.325Z,5.35
2023-01-07T23:36:19.674Z,5.38
2023-01-07T23:38:47.812Z,5.43
2023-01-07T23:41:15.702Z,5.48
2023-01-07T23:43:43.309Z,5.53
2023-01-07T23:46:11.695Z,5.57
2023-01-07T23:48:39.530Z,5.63
2023-01-07T23:51:13.963Z,5.69
2023-01-07T23:53:42.143Z,5.75
2023-01-07T23:56:09.717Z,5.81
2023-01-07T23:58:38.274Z,5.84
